McFaddin, Texas
Current Conditions -  °F | °C
As of 11:55 PM on Friday 19 Dec 2014 (Local Time) from KPKV Reporting Station
Overcast Overcast  
Wind Chill: 53°   Ceiling: 1100
Heat Index: 53°   Visibility: 7mi
Dew Point: 52°   Wind: 16mph
Humidity: 95%   Direction: 350°N
Pressure: 30.13"   Gusts: NA
Location:  28.55°N, 97.01°W
Report Text: KPKV 200555Z AUTO 35014KT 7SM OVC011 12/11 A3013 RMK AO2 T01170110 10147 20117 401860117
Loading
Personal Weather Stations






























Interactive Weather Map New forecast layout! Learn more

10-Day Weather Forecast

Advertisements
Track Severe Weather on mobile